Oden, MI (49764)

11:46 PM EDT on September 04, 2015 (GMT -0400)
APRSWXNET | | Change Station
CLOSE
Current Station
Personal Weather Station
Location: Alanson, MI
Elevation: 600 ft
Nearby Weather Stations

Elev 600 ft 45.42 °N, 84.79 °W | Updated 29 minutes ago

Overcast
Overcast
69 °F
Feels Like 69 °F
N
0
Wind Variable Wind from ENE
Gusts 2.0 mph

Today
High -- | Low -- °F
--% Chance of Precip.
Yesterday
High -- | Low -- °F
Precip. -- in
7:04 AM 8:11 PM
Waning Gibbous, 53% visible
Pressure 30.08 in
Visibility 10.0 miles
Clouds Mostly Cloudy 4400 ft
Mostly Cloudy 5000 ft
Overcast 7500 ft
Dew Point 67 °F
Humidity 93%
Rainfall in
Snow Depth Not available.
UV 0 out of 12
Pollen 10.10 out of 12
Air Quality Not available.
Flu Activity Not available.
METAR KMGN 050334Z AUTO 06005KT 10SM BKN044 BKN050 OVC075 21/19 A3008 RMK AO2 T02150193
Pressure 30.08 in
Visibility 10.0 miles
Clouds Mostly Cloudy 4400 ft
Mostly Cloudy 5000 ft
Overcast 7500 ft
Dew Point 67 °F
Humidity 93%
Rainfall in
Snow Depth Not available.
UV 0 out of 12
Pollen 10.10 out of 12
Air Quality Not available.
Flu Activity Not available.
METAR KMGN 050334Z AUTO 06005KT 10SM BKN044 BKN050 OVC075 21/19 A3008 RMK AO2 T02150193
Nowcast | as of 11:00 PM EDT on September 4, 2015

At 12 am...mostly cloudy. Areas of fog. Scattered showers. Temperature 69. East winds 6 mph. At 2 am...mostly cloudy. Areas of fog. Temperature 67. East winds 6 mph. At 4 am...mostly cloudy. Areas of fog. Temperature 67. Light winds. At 6 am...mostly cloudy. Areas of fog. Temperature 67. Light winds.

×

10-Day Weather Forecast

×

Almanac

Astronomy

Sep. 04, 2015 Rise Set
Actual Time
Civil Twilight
Nautical Twilight
Astronomical Twilight
Moon
Length of Visible Light
Length of Day
Tomorrow will be .
, % of the Moon is Illuminated

Today's Extremes

State Highs State Lows

Community

WunderPhotos

Upload Photos

1,852,408 photos uploaded!

WunderBlogs® & News

Nearby

Air Quality

  Air Quality AQ Index Pollutant
Not available.

Snow Depth

Station Depth Elevation

Earthquake Activity

City Distance Mag. Time & Date
Minimum magnitude displayed is 2.5.

Coastal Water Temperatures

Place Temperature

Stations

Nearby Weather Stations

Station Location Temp. Windchill Dew Point Humidity Wind Precip. Elev Updated Type